sensor_id;sensor_type;location;lat;lon;timestamp;temperature;humidity
2463;DHT22;1243;54.298;10.172;2022-11-20T00:01:13;2.20;99.90
2463;DHT22;1243;54.298;10.172;2022-11-20T00:03:39;2.20;99.90
2463;DHT22;1243;54.298;10.172;2022-11-20T00:06:08;2.20;99.90
2463;DHT22;1243;54.298;10.172;2022-11-20T00:08:34;2.20;99.90
2463;DHT22;1243;54.298;10.172;2022-11-20T00:11:09;2.20;99.90
2463;DHT22;1243;54.298;10.172;2022-11-20T00:13:35;2.20;99.90
2463;DHT22;1243;54.298;10.172;2022-11-20T00:16:04;2.10;99.90
2463;DHT22;1243;54.298;10.172;2022-11-20T00:18:32;2.10;99.90
2463;DHT22;1243;54.298;10.172;2022-11-20T00:21:02;2.10;99.90
2463;DHT22;1243;54.298;10.172;2022-11-20T00:23:28;2.10;99.90
2463;DHT22;1243;54.298;10.172;2022-11-20T00:25:54;2.10;99.90
2463;DHT22;1243;54.298;10.172;2022-11-20T00:28:19;2.10;99.90
2463;DHT22;1243;54.298;10.172;2022-11-20T00:30:45;2.20;99.90
2463;DHT22;1243;54.298;10.172;2022-11-20T00:33:11;2.20;99.90
2463;DHT22;1243;54.298;10.172;2022-11-20T00:35:37;2.20;99.90
2463;DHT22;1243;54.298;10.172;2022-11-20T00:38:02;2.20;99.90
2463;DHT22;1243;54.298;10.172;2022-11-20T00:40:28;2.20;99.90
2463;DHT22;1243;54.298;10.172;2022-11-20T00:42:54;2.20;99.90
2463;DHT22;1243;54.298;10.172;2022-11-20T00:45:19;2.20;99.90
2463;DHT22;1243;54.298;10.172;2022-11-20T00:47:45;2.20;99.90
2463;DHT22;1243;54.298;10.172;2022-11-20T00:50:11;2.20;99.90
2463;DHT22;1243;54.298;10.172;2022-11-20T00:52:36;2.20;99.90
2463;DHT22;1243;54.298;10.172;2022-11-20T00:55:02;2.10;99.90
2463;DHT22;1243;54.298;10.172;2022-11-20T00:57:28;2.10;99.90
2463;DHT22;1243;54.298;10.172;2022-11-20T00:59:54;2.10;99.90
2463;DHT22;1243;54.298;10.172;2022-11-20T01:02:20;2.20;99.90
2463;DHT22;1243;54.298;10.172;2022-11-20T01:04:45;2.20;99.90
2463;DHT22;1243;54.298;10.172;2022-11-20T01:07:11;2.20;99.90
2463;DHT22;1243;54.298;10.172;2022-11-20T01:09:37;2.10;99.90
2463;DHT22;1243;54.298;10.172;2022-11-20T01:12:03;2.10;99.90
2463;DHT22;1243;54.298;10.172;2022-11-20T01:14:29;2.10;99.90
2463;DHT22;1243;54.298;10.172;2022-11-20T01:16:55;2.20;99.90
2463;DHT22;1243;54.298;10.172;2022-11-20T01:19:22;2.20;99.90
2463;DHT22;1243;54.298;10.172;2022-11-20T01:21:53;2.10;99.90
2463;DHT22;1243;54.298;10.172;2022-11-20T01:24:20;2.20;99.90
2463;DHT22;1243;54.298;10.172;2022-11-20T01:26:49;2.20;99.90
2463;DHT22;1243;54.298;10.172;2022-11-20T01:29:23;2.20;99.90
2463;DHT22;1243;54.298;10.172;2022-11-20T01:31:49;2.30;99.90
2463;DHT22;1243;54.298;10.172;2022-11-20T01:34:18;2.30;99.90
2463;DHT22;1243;54.298;10.172;2022-11-20T01:36:44;2.20;99.90
2463;DHT22;1243;54.298;10.172;2022-11-20T01:39:17;2.20;99.90
2463;DHT22;1243;54.298;10.172;2022-11-20T01:41:45;2.20;99.90
2463;DHT22;1243;54.298;10.172;2022-11-20T01:44:58;2.10;99.90
2463;DHT22;1243;54.298;10.172;2022-11-20T01:47:43;2.10;99.90
2463;DHT22;1243;54.298;10.172;2022-11-20T01:50:21;2.00;99.90
2463;DHT22;1243;54.298;10.172;2022-11-20T01:52:58;2.10;99.90
2463;DHT22;1243;54.298;10.172;2022-11-20T01:55:34;2.10;99.90
2463;DHT22;1243;54.298;10.172;2022-11-20T01:58:02;2.10;99.90
2463;DHT22;1243;54.298;10.172;2022-11-20T02:00:29;2.10;99.90
2463;DHT22;1243;54.298;10.172;2022-11-20T02:02:58;2.10;99.90
2463;DHT22;1243;54.298;10.172;2022-11-20T02:05:46;2.20;99.90
2463;DHT22;1243;54.298;10.172;2022-11-20T02:08:15;2.20;99.90
2463;DHT22;1243;54.298;10.172;2022-11-20T02:10:42;2.10;99.90
2463;DHT22;1243;54.298;10.172;2022-11-20T02:13:11;2.10;99.90
2463;DHT22;1243;54.298;10.172;2022-11-20T02:15:56;2.20;99.90
2463;DHT22;1243;54.298;10.172;2022-11-20T02:18:23;2.20;99.90
2463;DHT22;1243;54.298;10.172;2022-11-20T02:20:55;2.20;99.90
2463;DHT22;1243;54.298;10.172;2022-11-20T02:23:28;2.20;99.90
2463;DHT22;1243;54.298;10.172;2022-11-20T02:25:57;2.20;99.90
2463;DHT22;1243;54.298;10.172;2022-11-20T02:28:24;2.20;99.90
2463;DHT22;1243;54.298;10.172;2022-11-20T02:30:50;2.10;99.90
2463;DHT22;1243;54.298;10.172;2022-11-20T02:33:15;2.10;99.90
2463;DHT22;1243;54.298;10.172;2022-11-20T02:35:44;2.10;99.90
2463;DHT22;1243;54.298;10.172;2022-11-20T02:38:10;2.10;99.90
2463;DHT22;1243;54.298;10.172;2022-11-20T02:40:36;2.10;99.90
2463;DHT22;1243;54.298;10.172;2022-11-20T02:43:01;2.10;99.90
2463;DHT22;1243;54.298;10.172;2022-11-20T02:45:27;2.20;99.90
2463;DHT22;1243;54.298;10.172;2022-11-20T02:47:53;2.20;99.90
2463;DHT22;1243;54.298;10.172;2022-11-20T02:50:19;2.20;99.90
2463;DHT22;1243;54.298;10.172;2022-11-20T02:52:45;2.20;99.90
2463;DHT22;1243;54.298;10.172;2022-11-20T02:55:11;2.20;99.90
2463;DHT22;1243;54.298;10.172;2022-11-20T02:57:37;2.20;99.90
2463;DHT22;1243;54.298;10.172;2022-11-20T03:00:03;2.10;99.90
2463;DHT22;1243;54.298;10.172;2022-11-20T03:02:32;2.10;99.90
2463;DHT22;1243;54.298;10.172;2022-11-20T03:04:58;2.10;99.90
2463;DHT22;1243;54.298;10.172;2022-11-20T03:07:24;2.10;99.90
2463;DHT22;1243;54.298;10.172;2022-11-20T03:09:50;2.10;99.90
2463;DHT22;1243;54.298;10.172;2022-11-20T03:12:15;2.10;99.90
2463;DHT22;1243;54.298;10.172;2022-11-20T03:14:41;2.10;99.90
2463;DHT22;1243;54.298;10.172;2022-11-20T03:17:07;2.10;99.90
2463;DHT22;1243;54.298;10.172;2022-11-20T03:19:33;2.10;99.90
2463;DHT22;1243;54.298;10.172;2022-11-20T03:21:59;2.10;99.90
2463;DHT22;1243;54.298;10.172;2022-11-20T03:24:26;2.10;99.90
2463;DHT22;1243;54.298;10.172;2022-11-20T03:26:51;2.10;99.90
2463;DHT22;1243;54.298;10.172;2022-11-20T03:29:17;2.10;99.90
2463;DHT22;1243;54.298;10.172;2022-11-20T03:31:43;2.10;99.90
2463;DHT22;1243;54.298;10.172;2022-11-20T03:34:10;2.10;99.90
2463;DHT22;1243;54.298;10.172;2022-11-20T03:36:40;2.10;99.90
2463;DHT22;1243;54.298;10.172;2022-11-20T03:39:07;2.00;99.90
2463;DHT22;1243;54.298;10.172;2022-11-20T03:41:36;2.00;99.90
2463;DHT22;1243;54.298;10.172;2022-11-20T03:44:05;2.00;99.90
2463;DHT22;1243;54.298;10.172;2022-11-20T03:46:32;2.10;99.90
2463;DHT22;1243;54.298;10.172;2022-11-20T03:48:57;2.10;99.90
2463;DHT22;1243;54.298;10.172;2022-11-20T03:51:26;2.10;99.90
2463;DHT22;1243;54.298;10.172;2022-11-20T03:53:54;2.20;99.90
2463;DHT22;1243;54.298;10.172;2022-11-20T03:56:23;2.20;99.90
2463;DHT22;1243;54.298;10.172;2022-11-20T03:58:49;2.20;99.90
2463;DHT22;1243;54.298;10.172;2022-11-20T04:01:20;2.20;99.90
2463;DHT22;1243;54.298;10.172;2022-11-20T04:03:46;2.20;99.90
2463;DHT22;1243;54.298;10.172;2022-11-20T04:06:17;2.20;99.90
2463;DHT22;1243;54.298;10.172;2022-11-20T04:08:43;2.20;99.90
2463;DHT22;1243;54.298;10.172;2022-11-20T04:11:21;2.20;99.90
2463;DHT22;1243;54.298;10.172;2022-11-20T04:13:55;2.20;99.90
2463;DHT22;1243;54.298;10.172;2022-11-20T04:16:22;2.20;99.90
2463;DHT22;1243;54.298;10.172;2022-11-20T04:18:56;2.20;99.90
2463;DHT22;1243;54.298;10.172;2022-11-20T04:21:23;2.20;99.90
2463;DHT22;1243;54.298;10.172;2022-11-20T04:23:50;2.10;99.90
2463;DHT22;1243;54.298;10.172;2022-11-20T04:26:19;2.10;99.90
2463;DHT22;1243;54.298;10.172;2022-11-20T04:28:45;2.20;99.90
2463;DHT22;1243;54.298;10.172;2022-11-20T04:31:17;2.20;99.90
2463;DHT22;1243;54.298;10.172;2022-11-20T04:33:43;2.20;99.90
2463;DHT22;1243;54.298;10.172;2022-11-20T04:36:20;2.20;99.90
2463;DHT22;1243;54.298;10.172;2022-11-20T04:38:46;2.20;99.90
2463;DHT22;1243;54.298;10.172;2022-11-20T04:41:16;2.20;99.90
2463;DHT22;1243;54.298;10.172;2022-11-20T04:43:46;2.20;99.90
2463;DHT22;1243;54.298;10.172;2022-11-20T04:46:14;2.20;99.90
2463;DHT22;1243;54.298;10.172;2022-11-20T04:48:39;2.20;99.90
2463;DHT22;1243;54.298;10.172;2022-11-20T04:51:05;2.20;99.90
2463;DHT22;1243;54.298;10.172;2022-11-20T04:53:31;2.20;99.90
2463;DHT22;1243;54.298;10.172;2022-11-20T04:56:02;2.20;99.90
2463;DHT22;1243;54.298;10.172;2022-11-20T04:58:28;2.20;99.90
2463;DHT22;1243;54.298;10.172;2022-11-20T05:01:04;2.20;99.90
2463;DHT22;1243;54.298;10.172;2022-11-20T05:03:30;2.20;99.90
2463;DHT22;1243;54.298;10.172;2022-11-20T05:05:59;2.10;99.90
2463;DHT22;1243;54.298;10.172;2022-11-20T05:08:25;2.00;99.90
2463;DHT22;1243;54.298;10.172;2022-11-20T05:10:50;2.00;99.90
2463;DHT22;1243;54.298;10.172;2022-11-20T05:13:16;2.00;99.90
2463;DHT22;1243;54.298;10.172;2022-11-20T05:15:42;2.00;99.90
2463;DHT22;1243;54.298;10.172;2022-11-20T05:18:07;2.10;99.90
2463;DHT22;1243;54.298;10.172;2022-11-20T05:20:33;2.10;99.90
2463;DHT22;1243;54.298;10.172;2022-11-20T05:22:59;2.10;99.90
2463;DHT22;1243;54.298;10.172;2022-11-20T05:25:25;2.10;99.90
2463;DHT22;1243;54.298;10.172;2022-11-20T05:27:50;2.20;99.90
2463;DHT22;1243;54.298;10.172;2022-11-20T05:30:16;2.20;99.90
2463;DHT22;1243;54.298;10.172;2022-11-20T05:32:42;2.10;99.90
2463;DHT22;1243;54.298;10.172;2022-11-20T05:35:08;2.10;99.90
2463;DHT22;1243;54.298;10.172;2022-11-20T05:37:33;2.10;99.90
2463;DHT22;1243;54.298;10.172;2022-11-20T05:39:59;2.10;99.90
2463;DHT22;1243;54.298;10.172;2022-11-20T05:42:25;2.10;99.90
2463;DHT22;1243;54.298;10.172;2022-11-20T05:45:01;2.10;99.90
2463;DHT22;1243;54.298;10.172;2022-11-20T05:47:31;2.10;99.90
2463;DHT22;1243;54.298;10.172;2022-11-20T05:49:56;2.10;99.90
2463;DHT22;1243;54.298;10.172;2022-11-20T05:52:22;2.10;99.90
2463;DHT22;1243;54.298;10.172;2022-11-20T05:54:48;2.10;99.90
2463;DHT22;1243;54.298;10.172;2022-11-20T05:57:14;2.10;99.90
2463;DHT22;1243;54.298;10.172;2022-11-20T05:59:39;2.10;99.90
2463;DHT22;1243;54.298;10.172;2022-11-20T06:02:05;2.00;99.90
2463;DHT22;1243;54.298;10.172;2022-11-20T06:04:31;2.00;99.90
2463;DHT22;1243;54.298;10.172;2022-11-20T06:06:57;2.00;99.90
2463;DHT22;1243;54.298;10.172;2022-11-20T06:09:22;2.00;99.90
2463;DHT22;1243;54.298;10.172;2022-11-20T06:11:48;2.10;99.90
2463;DHT22;1243;54.298;10.172;2022-11-20T06:14:14;2.10;99.90
2463;DHT22;1243;54.298;10.172;2022-11-20T06:16:39;2.10;99.90
2463;DHT22;1243;54.298;10.172;2022-11-20T06:19:05;2.10;99.90
2463;DHT22;1243;54.298;10.172;2022-11-20T06:21:31;2.00;99.90
2463;DHT22;1243;54.298;10.172;2022-11-20T06:23:56;1.90;99.90
2463;DHT22;1243;54.298;10.172;2022-11-20T06:26:25;1.90;99.90
2463;DHT22;1243;54.298;10.172;2022-11-20T06:28:52;2.00;99.90
2463;DHT22;1243;54.298;10.172;2022-11-20T06:31:19;1.90;99.90
2463;DHT22;1243;54.298;10.172;2022-11-20T06:33:45;1.90;99.90
2463;DHT22;1243;54.298;10.172;2022-11-20T06:36:13;1.90;99.90
2463;DHT22;1243;54.298;10.172;2022-11-20T06:38:40;1.90;99.90
2463;DHT22;1243;54.298;10.172;2022-11-20T06:41:07;1.90;99.90
2463;DHT22;1243;54.298;10.172;2022-11-20T06:43:33;1.90;99.90
2463;DHT22;1243;54.298;10.172;2022-11-20T06:45:59;1.90;99.90
2463;DHT22;1243;54.298;10.172;2022-11-20T06:48:26;2.00;99.90
2463;DHT22;1243;54.298;10.172;2022-11-20T06:50:52;2.00;99.90
2463;DHT22;1243;54.298;10.172;2022-11-20T06:53:18;1.90;99.90
2463;DHT22;1243;54.298;10.172;2022-11-20T06:55:46;1.80;99.90
2463;DHT22;1243;54.298;10.172;2022-11-20T06:58:12;1.80;99.90
2463;DHT22;1243;54.298;10.172;2022-11-20T07:00:39;1.90;99.90
2463;DHT22;1243;54.298;10.172;2022-11-20T07:03:08;1.90;99.90
2463;DHT22;1243;54.298;10.172;2022-11-20T07:05:36;1.90;99.90
2463;DHT22;1243;54.298;10.172;2022-11-20T07:08:03;1.90;99.90
2463;DHT22;1243;54.298;10.172;2022-11-20T07:10:29;2.00;99.90
2463;DHT22;1243;54.298;10.172;2022-11-20T07:12:55;1.90;99.90
2463;DHT22;1243;54.298;10.172;2022-11-20T07:15:22;1.90;99.90
2463;DHT22;1243;54.298;10.172;2022-11-20T07:17:48;1.90;99.90
2463;DHT22;1243;54.298;10.172;2022-11-20T07:20:14;2.00;99.90
2463;DHT22;1243;54.298;10.172;2022-11-20T07:22:40;2.00;99.90
2463;DHT22;1243;54.298;10.172;2022-11-20T07:25:06;2.00;99.90
2463;DHT22;1243;54.298;10.172;2022-11-20T07:27:32;2.00;99.90
2463;DHT22;1243;54.298;10.172;2022-11-20T07:29:58;2.10;99.90
2463;DHT22;1243;54.298;10.172;2022-11-20T07:32:23;2.10;99.90
2463;DHT22;1243;54.298;10.172;2022-11-20T07:34:49;2.10;99.90
2463;DHT22;1243;54.298;10.172;2022-11-20T07:37:15;2.10;99.90
2463;DHT22;1243;54.298;10.172;2022-11-20T07:39:42;2.20;99.90
2463;DHT22;1243;54.298;10.172;2022-11-20T07:42:08;2.10;99.90
2463;DHT22;1243;54.298;10.172;2022-11-20T07:44:34;2.10;99.90
2463;DHT22;1243;54.298;10.172;2022-11-20T07:47:00;2.20;99.90
2463;DHT22;1243;54.298;10.172;2022-11-20T07:49:26;2.30;99.90
2463;DHT22;1243;54.298;10.172;2022-11-20T07:51:52;2.30;99.90
2463;DHT22;1243;54.298;10.172;2022-11-20T07:54:21;2.30;99.90
2463;DHT22;1243;54.298;10.172;2022-11-20T07:56:48;2.20;99.90
2463;DHT22;1243;54.298;10.172;2022-11-20T07:59:14;2.10;99.90
2463;DHT22;1243;54.298;10.172;2022-11-20T08:01:41;2.00;99.90
2463;DHT22;1243;54.298;10.172;2022-11-20T08:04:07;1.90;99.90
2463;DHT22;1243;54.298;10.172;2022-11-20T08:06:33;1.80;99.90
2463;DHT22;1243;54.298;10.172;2022-11-20T08:08:59;1.70;99.90
2463;DHT22;1243;54.298;10.172;2022-11-20T08:11:25;1.80;99.90
2463;DHT22;1243;54.298;10.172;2022-11-20T08:14:09;1.90;99.90
2463;DHT22;1243;54.298;10.172;2022-11-20T08:16:45;2.00;99.90
2463;DHT22;1243;54.298;10.172;2022-11-20T08:19:12;2.10;99.90
2463;DHT22;1243;54.298;10.172;2022-11-20T08:21:38;2.20;99.90
2463;DHT22;1243;54.298;10.172;2022-11-20T08:24:05;2.20;99.90
2463;DHT22;1243;54.298;10.172;2022-11-20T08:26:30;2.30;99.90
2463;DHT22;1243;54.298;10.172;2022-11-20T08:28:57;2.30;99.90
2463;DHT22;1243;54.298;10.172;2022-11-20T08:31:24;2.30;99.90
2463;DHT22;1243;54.298;10.172;2022-11-20T08:33:51;2.20;99.90
2463;DHT22;1243;54.298;10.172;2022-11-20T08:36:17;2.20;99.90
2463;DHT22;1243;54.298;10.172;2022-11-20T08:38:47;2.20;99.90
2463;DHT22;1243;54.298;10.172;2022-11-20T08:41:13;2.10;99.90
2463;DHT22;1243;54.298;10.172;2022-11-20T08:43:59;2.20;99.90
2463;DHT22;1243;54.298;10.172;2022-11-20T08:46:28;2.30;99.90
2463;DHT22;1243;54.298;10.172;2022-11-20T08:48:56;2.40;99.90
2463;DHT22;1243;54.298;10.172;2022-11-20T08:51:21;2.60;99.90
2463;DHT22;1243;54.298;10.172;2022-11-20T08:53:47;2.80;99.90
2463;DHT22;1243;54.298;10.172;2022-11-20T08:56:14;2.80;99.90
2463;DHT22;1243;54.298;10.172;2022-11-20T08:58:40;2.90;99.90
2463;DHT22;1243;54.298;10.172;2022-11-20T09:01:06;2.90;99.90
2463;DHT22;1243;54.298;10.172;2022-11-20T09:03:32;3.00;99.90
2463;DHT22;1243;54.298;10.172;2022-11-20T09:05:59;3.10;99.90
2463;DHT22;1243;54.298;10.172;2022-11-20T09:08:26;3.20;99.90
2463;DHT22;1243;54.298;10.172;2022-11-20T09:10:55;3.20;99.90
2463;DHT22;1243;54.298;10.172;2022-11-20T09:13:22;3.20;99.90
2463;DHT22;1243;54.298;10.172;2022-11-20T09:15:53;3.10;99.90
2463;DHT22;1243;54.298;10.172;2022-11-20T09:18:19;3.10;99.90
2463;DHT22;1243;54.298;10.172;2022-11-20T09:20:44;2.90;99.90
2463;DHT22;1243;54.298;10.172;2022-11-20T09:23:10;2.90;99.90
2463;DHT22;1243;54.298;10.172;2022-11-20T09:25:36;2.90;99.90
2463;DHT22;1243;54.298;10.172;2022-11-20T09:28:01;2.90;99.90
2463;DHT22;1243;54.298;10.172;2022-11-20T09:30:27;2.90;99.90
2463;DHT22;1243;54.298;10.172;2022-11-20T09:32:53;3.00;99.90
2463;DHT22;1243;54.298;10.172;2022-11-20T09:35:19;3.10;99.90
2463;DHT22;1243;54.298;10.172;2022-11-20T09:37:45;3.10;99.90
2463;DHT22;1243;54.298;10.172;2022-11-20T09:40:23;3.20;99.90
2463;DHT22;1243;54.298;10.172;2022-11-20T09:43:10;3.30;99.90
2463;DHT22;1243;54.298;10.172;2022-11-20T09:50:53;3.40;99.90
2463;DHT22;1243;54.298;10.172;2022-11-20T09:56:09;3.40;99.90
2463;DHT22;1243;54.298;10.172;2022-11-20T09:58:42;3.40;99.90
2463;DHT22;1243;54.298;10.172;2022-11-20T10:01:30;3.50;99.90
2463;DHT22;1243;54.298;10.172;2022-11-20T10:04:02;3.60;99.90
2463;DHT22;1243;54.298;10.172;2022-11-20T10:06:33;3.70;99.90
2463;DHT22;1243;54.298;10.172;2022-11-20T10:12:56;3.50;99.90
2463;DHT22;1243;54.298;10.172;2022-11-20T10:15:12;3.70;99.90
2463;DHT22;1243;54.298;10.172;2022-11-20T10:34:05;2.20;99.90
2463;DHT22;1243;54.298;10.172;2022-11-20T10:42:11;2.20;99.90
2463;DHT22;1243;54.298;10.172;2022-11-20T10:44:39;2.40;99.90
2463;DHT22;1243;54.298;10.172;2022-11-20T10:47:30;2.50;99.90
2463;DHT22;1243;54.298;10.172;2022-11-20T10:49:58;2.70;99.90
2463;DHT22;1243;54.298;10.172;2022-11-20T11:00:21;3.10;99.90
2463;DHT22;1243;54.298;10.172;2022-11-20T11:02:57;3.20;99.90
2463;DHT22;1243;54.298;10.172;2022-11-20T11:05:54;3.30;99.90
2463;DHT22;1243;54.298;10.172;2022-11-20T11:08:23;3.20;99.90
2463;DHT22;1243;54.298;10.172;2022-11-20T11:10:59;3.10;99.90
2463;DHT22;1243;54.298;10.172;2022-11-20T11:13:29;2.90;99.90
2463;DHT22;1243;54.298;10.172;2022-11-20T11:15:55;2.90;99.90
2463;DHT22;1243;54.298;10.172;2022-11-20T11:18:29;2.90;99.90
2463;DHT22;1243;54.298;10.172;2022-11-20T11:20:57;2.80;99.90
2463;DHT22;1243;54.298;10.172;2022-11-20T11:23:34;2.80;99.90
2463;DHT22;1243;54.298;10.172;2022-11-20T11:26:04;2.80;99.90
2463;DHT22;1243;54.298;10.172;2022-11-20T11:28:30;2.90;99.90
2463;DHT22;1243;54.298;10.172;2022-11-20T11:30:56;2.90;99.90
2463;DHT22;1243;54.298;10.172;2022-11-20T11:33:27;3.00;99.90
2463;DHT22;1243;54.298;10.172;2022-11-20T11:35:56;3.00;99.90
2463;DHT22;1243;54.298;10.172;2022-11-20T11:38:39;3.10;99.90
2463;DHT22;1243;54.298;10.172;2022-11-20T11:41:11;3.40;99.90
2463;DHT22;1243;54.298;10.172;2022-11-20T11:43:38;3.60;99.90
2463;DHT22;1243;54.298;10.172;2022-11-20T11:46:27;3.70;99.90
2463;DHT22;1243;54.298;10.172;2022-11-20T11:48:59;3.70;99.90
2463;DHT22;1243;54.298;10.172;2022-11-20T11:54:05;3.30;99.90
2463;DHT22;1243;54.298;10.172;2022-11-20T11:56:36;3.20;99.90
2463;DHT22;1243;54.298;10.172;2022-11-20T11:59:05;3.00;99.90
2463;DHT22;1243;54.298;10.172;2022-11-20T12:01:50;3.00;99.90
2463;DHT22;1243;54.298;10.172;2022-11-20T12:04:20;2.90;99.90
2463;DHT22;1243;54.298;10.172;2022-11-20T12:06:53;2.90;99.90
2463;DHT22;1243;54.298;10.172;2022-11-20T12:09:34;3.00;99.90
2463;DHT22;1243;54.298;10.172;2022-11-20T12:12:10;3.00;99.90
2463;DHT22;1243;54.298;10.172;2022-11-20T12:14:40;3.10;99.90
2463;DHT22;1243;54.298;10.172;2022-11-20T12:17:11;3.10;99.90
2463;DHT22;1243;54.298;10.172;2022-11-20T12:19:37;3.10;99.90
2463;DHT22;1243;54.298;10.172;2022-11-20T12:36:37;2.70;99.90
2463;DHT22;1243;54.298;10.172;2022-11-20T12:39:22;2.50;99.90
2463;DHT22;1243;54.298;10.172;2022-11-20T12:56:42;2.80;99.90
2463;DHT22;1243;54.298;10.172;2022-11-20T12:59:36;2.80;99.90
2463;DHT22;1243;54.298;10.172;2022-11-20T13:07:45;2.80;99.90
2463;DHT22;1243;54.298;10.172;2022-11-20T13:10:31;2.70;99.90
2463;DHT22;1243;54.298;10.172;2022-11-20T13:13:22;2.60;99.90
2463;DHT22;1243;54.298;10.172;2022-11-20T13:16:00;2.50;99.90
2463;DHT22;1243;54.298;10.172;2022-11-20T13:18:29;2.30;99.90
2463;DHT22;1243;54.298;10.172;2022-11-20T13:20:56;2.30;99.90
2463;DHT22;1243;54.298;10.172;2022-11-20T13:23:24;2.50;99.90
2463;DHT22;1243;54.298;10.172;2022-11-20T13:25:50;2.70;99.90
2463;DHT22;1243;54.298;10.172;2022-11-20T13:30:52;2.80;99.90
2463;DHT22;1243;54.298;10.172;2022-11-20T13:33:35;2.60;99.90
2463;DHT22;1243;54.298;10.172;2022-11-20T13:36:22;2.60;99.90
2463;DHT22;1243;54.298;10.172;2022-11-20T13:38:53;2.50;99.90
2463;DHT22;1243;54.298;10.172;2022-11-20T13:43:58;2.50;99.90
2463;DHT22;1243;54.298;10.172;2022-11-20T13:46:52;2.40;99.90
2463;DHT22;1243;54.298;10.172;2022-11-20T13:49:27;2.20;99.90
2463;DHT22;1243;54.298;10.172;2022-11-20T14:00:16;1.90;99.90
2463;DHT22;1243;54.298;10.172;2022-11-20T14:02:44;1.80;99.90
2463;DHT22;1243;54.298;10.172;2022-11-20T14:05:22;1.70;99.90
2463;DHT22;1243;54.298;10.172;2022-11-20T14:07:49;1.80;99.90
2463;DHT22;1243;54.298;10.172;2022-11-20T14:10:29;1.80;99.90
2463;DHT22;1243;54.298;10.172;2022-11-20T14:12:55;2.00;99.90
2463;DHT22;1243;54.298;10.172;2022-11-20T14:15:38;2.00;99.90
2463;DHT22;1243;54.298;10.172;2022-11-20T14:18:14;2.00;99.90
2463;DHT22;1243;54.298;10.172;2022-11-20T14:20:42;2.00;99.90
2463;DHT22;1243;54.298;10.172;2022-11-20T14:23:10;1.90;99.90
2463;DHT22;1243;54.298;10.172;2022-11-20T14:25:36;2.00;99.90
2463;DHT22;1243;54.298;10.172;2022-11-20T14:28:03;1.90;99.90
2463;DHT22;1243;54.298;10.172;2022-11-20T14:30:43;2.00;99.90
2463;DHT22;1243;54.298;10.172;2022-11-20T14:33:11;1.80;99.90
2463;DHT22;1243;54.298;10.172;2022-11-20T14:35:48;1.70;99.90
2463;DHT22;1243;54.298;10.172;2022-11-20T14:38:17;1.60;99.90
2463;DHT22;1243;54.298;10.172;2022-11-20T14:40:44;1.60;99.90
2463;DHT22;1243;54.298;10.172;2022-11-20T14:43:27;1.60;99.90
2463;DHT22;1243;54.298;10.172;2022-11-20T14:46:08;1.70;99.90
2463;DHT22;1243;54.298;10.172;2022-11-20T14:48:45;1.70;99.90
2463;DHT22;1243;54.298;10.172;2022-11-20T14:51:22;1.80;99.90
2463;DHT22;1243;54.298;10.172;2022-11-20T14:53:48;1.80;99.90
2463;DHT22;1243;54.298;10.172;2022-11-20T14:56:22;1.90;99.90
2463;DHT22;1243;54.298;10.172;2022-11-20T14:58:56;1.90;99.90
2463;DHT22;1243;54.298;10.172;2022-11-20T15:01:27;1.90;99.90
2463;DHT22;1243;54.298;10.172;2022-11-20T15:04:09;1.90;99.90
2463;DHT22;1243;54.298;10.172;2022-11-20T15:06:36;1.90;99.90
2463;DHT22;1243;54.298;10.172;2022-11-20T15:09:04;1.90;99.90
2463;DHT22;1243;54.298;10.172;2022-11-20T15:11:33;1.80;99.90
2463;DHT22;1243;54.298;10.172;2022-11-20T15:14:05;1.80;99.90
2463;DHT22;1243;54.298;10.172;2022-11-20T15:16:32;1.60;99.90
2463;DHT22;1243;54.298;10.172;2022-11-20T15:18:58;1.60;99.90
2463;DHT22;1243;54.298;10.172;2022-11-20T15:21:25;1.50;99.90
2463;DHT22;1243;54.298;10.172;2022-11-20T15:23:51;1.50;99.90
2463;DHT22;1243;54.298;10.172;2022-11-20T15:26:26;1.40;99.90
2463;DHT22;1243;54.298;10.172;2022-11-20T15:28:53;1.40;99.90
2463;DHT22;1243;54.298;10.172;2022-11-20T15:31:22;1.40;99.90
2463;DHT22;1243;54.298;10.172;2022-11-20T15:33:49;1.40;99.90
2463;DHT22;1243;54.298;10.172;2022-11-20T15:36:14;1.40;99.90
2463;DHT22;1243;54.298;10.172;2022-11-20T15:38:40;1.30;99.90
2463;DHT22;1243;54.298;10.172;2022-11-20T15:41:07;1.30;99.90
2463;DHT22;1243;54.298;10.172;2022-11-20T15:43:33;1.30;99.90
2463;DHT22;1243;54.298;10.172;2022-11-20T15:46:05;1.20;99.90
2463;DHT22;1243;54.298;10.172;2022-11-20T15:48:45;1.20;99.90
2463;DHT22;1243;54.298;10.172;2022-11-20T15:51:37;1.10;99.90
2463;DHT22;1243;54.298;10.172;2022-11-20T15:54:13;1.10;99.90
2463;DHT22;1243;54.298;10.172;2022-11-20T15:56:39;1.10;99.90
2463;DHT22;1243;54.298;10.172;2022-11-20T15:59:04;1.10;99.90
2463;DHT22;1243;54.298;10.172;2022-11-20T16:01:30;1.10;99.90
2463;DHT22;1243;54.298;10.172;2022-11-20T16:03:56;1.00;99.90
2463;DHT22;1243;54.298;10.172;2022-11-20T16:06:22;1.00;99.90
2463;DHT22;1243;54.298;10.172;2022-11-20T16:08:47;1.00;99.90
2463;DHT22;1243;54.298;10.172;2022-11-20T16:11:15;1.10;99.90
2463;DHT22;1243;54.298;10.172;2022-11-20T16:13:41;1.20;99.90
2463;DHT22;1243;54.298;10.172;2022-11-20T16:18:56;1.20;99.90
2463;DHT22;1243;54.298;10.172;2022-11-20T16:21:22;1.30;99.90
2463;DHT22;1243;54.298;10.172;2022-11-20T16:24:00;1.30;99.90
2463;DHT22;1243;54.298;10.172;2022-11-20T16:26:26;1.30;99.90
2463;DHT22;1243;54.298;10.172;2022-11-20T16:28:52;1.40;99.90
2463;DHT22;1243;54.298;10.172;2022-11-20T16:31:20;1.40;99.90
2463;DHT22;1243;54.298;10.172;2022-11-20T16:33:50;1.50;99.90
2463;DHT22;1243;54.298;10.172;2022-11-20T16:36:16;1.50;99.90
2463;DHT22;1243;54.298;10.172;2022-11-20T16:38:42;1.60;99.90
2463;DHT22;1243;54.298;10.172;2022-11-20T16:41:09;1.60;99.90
2463;DHT22;1243;54.298;10.172;2022-11-20T16:43:53;1.60;99.90
2463;DHT22;1243;54.298;10.172;2022-11-20T16:46:21;1.60;99.90
2463;DHT22;1243;54.298;10.172;2022-11-20T16:49:06;1.60;99.90
2463;DHT22;1243;54.298;10.172;2022-11-20T16:51:36;1.60;99.90
2463;DHT22;1243;54.298;10.172;2022-11-20T16:54:04;1.60;99.90
2463;DHT22;1243;54.298;10.172;2022-11-20T16:56:30;1.70;99.90
2463;DHT22;1243;54.298;10.172;2022-11-20T16:58:57;1.60;99.90
2463;DHT22;1243;54.298;10.172;2022-11-20T17:01:24;1.70;99.90
2463;DHT22;1243;54.298;10.172;2022-11-20T17:04:01;1.70;99.90
2463;DHT22;1243;54.298;10.172;2022-11-20T17:06:30;1.60;99.90
2463;DHT22;1243;54.298;10.172;2022-11-20T17:08:57;1.70;99.90
2463;DHT22;1243;54.298;10.172;2022-11-20T17:11:23;1.80;99.90
2463;DHT22;1243;54.298;10.172;2022-11-20T17:13:49;1.80;99.90
2463;DHT22;1243;54.298;10.172;2022-11-20T17:16:21;1.80;99.90
2463;DHT22;1243;54.298;10.172;2022-11-20T17:18:48;1.80;99.90
2463;DHT22;1243;54.298;10.172;2022-11-20T17:21:18;1.80;99.90
2463;DHT22;1243;54.298;10.172;2022-11-20T17:23:45;1.80;99.90
2463;DHT22;1243;54.298;10.172;2022-11-20T17:26:19;1.80;99.90
2463;DHT22;1243;54.298;10.172;2022-11-20T17:28:52;1.80;99.90
2463;DHT22;1243;54.298;10.172;2022-11-20T17:31:18;1.70;99.90
2463;DHT22;1243;54.298;10.172;2022-11-20T17:33:45;1.70;99.90
2463;DHT22;1243;54.298;10.172;2022-11-20T17:36:13;1.70;99.90
2463;DHT22;1243;54.298;10.172;2022-11-20T17:38:39;1.70;99.90
2463;DHT22;1243;54.298;10.172;2022-11-20T17:41:11;1.70;99.90
2463;DHT22;1243;54.298;10.172;2022-11-20T17:43:37;1.60;99.90
2463;DHT22;1243;54.298;10.172;2022-11-20T17:48:37;1.60;99.90
2463;DHT22;1243;54.298;10.172;2022-11-20T17:51:06;1.60;99.90
2463;DHT22;1243;54.298;10.172;2022-11-20T17:53:34;1.50;99.90